createdAt,value
2022-09-06T00:02:51.010Z,93.1
2022-09-06T00:07:58.629Z,92.98
2022-09-06T00:13:05.540Z,93.09
2022-09-06T00:18:12.735Z,93.18
2022-09-06T00:23:20.720Z,92.92
2022-09-06T00:28:28.467Z,92.89001
2022-09-06T00:33:35.953Z,93.2
2022-09-06T00:38:43.211Z,93.31
2022-09-06T00:43:51.167Z,93.18
2022-09-06T00:48:59.035Z,93.26
2022-09-06T00:54:05.923Z,93.52
2022-09-06T00:59:13.694Z,93.45
2022-09-06T01:04:20.728Z,93.38
2022-09-06T01:09:27.935Z,93.13
2022-09-06T01:14:35.479Z,93.43
2022-09-06T01:19:43.529Z,93.48001
2022-09-06T01:24:50.981Z,93.77
2022-09-06T01:29:58.967Z,93.58001
2022-09-06T01:35:06.543Z,93.64
2022-09-06T01:40:13.741Z,93.62
2022-09-06T01:45:20.950Z,93.9
2022-09-06T01:50:28.808Z,93.86001
2022-09-06T01:55:36.681Z,93.66
2022-09-06T02:00:44.416Z,93.61
2022-09-06T02:05:51.998Z,93.85
2022-09-06T02:10:59.468Z,93.66
2022-09-06T02:16:06.799Z,93.53
2022-09-06T02:21:14.541Z,93.86001
2022-09-06T02:26:22.410Z,93.72001
2022-09-06T02:31:31.967Z,93.74
2022-09-06T02:36:40.045Z,93.9
2022-09-06T02:41:48.043Z,93.8
2022-09-06T02:46:55.615Z,93.82
2022-09-06T02:52:03.108Z,94.08
2022-09-06T02:57:10.018Z,94.00001
2022-09-06T03:02:17.215Z,94.08999
2022-09-06T03:07:24.411Z,94.00001
2022-09-06T03:12:33.815Z,94.01999
2022-09-06T03:17:40.787Z,94.01999
2022-09-06T03:22:48.062Z,94.01999
2022-09-06T03:27:54.569Z,94.07001
2022-09-06T03:33:02.771Z,94.13
2022-09-06T03:38:09.071Z,93.96
2022-09-06T03:43:17.650Z,94.24
2022-09-06T03:48:26.360Z,94.1
2022-09-06T03:53:35.125Z,94.11
2022-09-06T03:58:48.640Z,94.25
2022-09-06T04:03:55.939Z,94.17
2022-09-06T04:09:04.254Z,94.04
2022-09-06T04:14:12.102Z,94.2
2022-09-06T04:19:20.918Z,94.32
2022-09-06T04:24:28.432Z,94.26001
2022-09-06T04:29:36.252Z,94.38
2022-09-06T04:34:43.936Z,94.40001
2022-09-06T04:39:52.446Z,94.23
2022-09-06T04:45:01.449Z,94.31
2022-09-06T04:50:08.300Z,94.46
2022-09-06T04:55:18.172Z,94.56
2022-09-06T05:00:25.818Z,94.38
2022-09-06T05:05:33.418Z,94.41001
2022-09-06T05:10:41.834Z,94.54
2022-09-06T05:15:51.171Z,94.51
2022-09-06T05:20:58.463Z,94.58
2022-09-06T05:26:07.483Z,94.57
2022-09-06T05:31:15.899Z,94.63
2022-09-06T05:36:24.362Z,95.13
2022-09-06T05:41:32.415Z,94.37
2022-09-06T05:46:40.309Z,94.07001
2022-09-06T05:51:47.120Z,92.15
2022-09-06T05:56:55.506Z,91.15001
2022-09-06T06:02:04.289Z,90.45
2022-09-06T06:07:11.611Z,88.67
2022-09-06T06:12:18.159Z,87.72
2022-09-06T06:17:25.801Z,86.08001
2022-09-06T06:22:33.220Z,85.74
2022-09-06T06:27:41.936Z,82.36
2022-09-06T06:32:49.752Z,82.58
2022-09-06T06:37:59.254Z,83.35
2022-09-06T06:43:05.862Z,82.15
2022-09-06T06:48:12.416Z,83.34
2022-09-06T06:53:21.881Z,83.03
2022-09-06T06:58:31.228Z,82.67
2022-09-06T07:03:39.191Z,81.49
2022-09-06T07:08:46.447Z,82.34
2022-09-06T07:13:54.324Z,81.23
2022-09-06T07:19:02.527Z,80.89
2022-09-06T07:24:10.084Z,80.19
2022-09-06T07:29:18.289Z,80.48
2022-09-06T07:34:24.894Z,80.41
2022-09-06T07:39:32.698Z,79.06
2022-09-06T07:44:41.098Z,78.62
2022-09-06T07:49:48.633Z,80.23001
2022-09-06T07:54:56.355Z,78.63
2022-09-06T08:00:10.472Z,80.33999
2022-09-06T08:05:17.789Z,78.61
2022-09-06T08:10:25.681Z,80.37001
2022-09-06T08:15:33.990Z,76.30001
2022-09-06T08:20:40.538Z,77.85
2022-09-06T08:25:49.054Z,78.06
2022-09-06T08:31:01.979Z,78.04
2022-09-06T08:36:09.834Z,76.65
2022-09-06T08:41:17.746Z,76.42
2022-09-06T08:46:25.519Z,76.92
2022-09-06T08:51:33.323Z,75.94
2022-09-06T08:56:41.727Z,76.31
2022-09-06T09:01:49.452Z,76.48
2022-09-06T09:06:57.374Z,76.85
2022-09-06T09:12:05.517Z,74.79
2022-09-06T09:17:14.247Z,75.34
2022-09-06T09:22:22.264Z,75.12001
2022-09-06T09:27:29.648Z,75.62
2022-09-06T09:32:37.768Z,73.84
2022-09-06T09:37:44.544Z,74.14
2022-09-06T09:42:52.410Z,74.2
2022-09-06T09:48:00.422Z,74.94
2022-09-06T09:53:08.020Z,75.28
2022-09-06T09:58:15.266Z,73.72
2022-09-06T10:03:24.069Z,74.04
2022-09-06T10:08:31.765Z,74.9
2022-09-06T10:13:41.174Z,75.9
2022-09-06T10:18:49.459Z,74.3
2022-09-06T10:23:57.765Z,73.71
2022-09-06T10:29:05.249Z,74.04
2022-09-06T10:34:12.461Z,71.26
2022-09-06T10:39:20.016Z,72.44
2022-09-06T10:44:27.101Z,72.31
2022-09-06T10:49:34.396Z,70.89
2022-09-06T10:54:41.546Z,71.53
2022-09-06T10:59:50.052Z,71.75
2022-09-06T11:04:58.653Z,72.33
2022-09-06T11:10:06.399Z,71.05
2022-09-06T11:15:16.781Z,71.14
2022-09-06T11:20:24.572Z,69.78
2022-09-06T11:25:32.452Z,69.03
2022-09-06T11:30:40.330Z,69.56
2022-09-06T11:35:47.919Z,70.82
2022-09-06T11:40:57.282Z,71.15
2022-09-06T11:46:05.810Z,69.69
2022-09-06T11:51:13.917Z,71.08
2022-09-06T11:56:22.494Z,70.12001
2022-09-06T12:01:29.622Z,71.26
2022-09-06T12:06:37.594Z,71.42
2022-09-06T12:11:45.023Z,68.42
2022-09-06T12:16:53.414Z,71.52
2022-09-06T12:22:01.368Z,67.53
2022-09-06T12:27:08.413Z,64.0
2022-09-06T12:32:16.210Z,68.32
2022-09-06T12:37:23.509Z,72.84
2022-09-06T12:42:31.391Z,72.34
2022-09-06T12:47:39.101Z,72.95
2022-09-06T12:52:46.975Z,73.96
2022-09-06T12:57:54.162Z,74.77
2022-09-06T13:03:01.380Z,73.84
2022-09-06T13:08:08.551Z,71.05
2022-09-06T13:13:17.020Z,63.72
2022-09-06T13:18:25.894Z,62.4
2022-09-06T13:23:33.667Z,58.47
2022-09-06T13:28:42.425Z,58.54
2022-09-06T13:33:49.702Z,59.41
2022-09-06T13:38:56.260Z,61.54
2022-09-06T13:44:02.852Z,61.8
2022-09-06T13:49:09.997Z,60.42
2022-09-06T13:54:17.290Z,58.22
2022-09-06T13:59:24.638Z,58.5
2022-09-06T14:04:31.593Z,58.71
2022-09-06T14:09:38.792Z,58.46
2022-09-06T14:14:46.047Z,58.65
2022-09-06T14:19:53.196Z,59.49
2022-09-06T14:25:00.379Z,65.34
2022-09-06T14:30:07.653Z,70.1
2022-09-06T14:35:14.806Z,71.88
2022-09-06T14:40:21.674Z,73.54
2022-09-06T14:45:29.801Z,72.0
2022-09-06T14:50:37.060Z,75.08
2022-09-06T14:55:45.321Z,74.7
2022-09-06T15:00:54.090Z,73.24
2022-09-06T15:06:01.911Z,74.06
2022-09-06T15:11:09.749Z,75.88
2022-09-06T15:16:17.618Z,74.46
2022-09-06T15:21:25.385Z,74.13
2022-09-06T15:26:34.485Z,73.80001
2022-09-06T15:31:42.362Z,73.28
2022-09-06T15:36:49.278Z,71.13
2022-09-06T15:41:56.258Z,73.17
2022-09-06T15:47:04.120Z,72.31
2022-09-06T15:52:12.352Z,73.06
2022-09-06T15:57:20.062Z,72.03
2022-09-06T16:02:27.801Z,66.87
2022-09-06T16:07:34.667Z,69.13
2022-09-06T16:12:42.260Z,68.25
2022-09-06T16:17:54.820Z,68.13
2022-09-06T16:23:01.383Z,69.83
2022-09-06T16:28:10.370Z,73.36
2022-09-06T16:33:17.064Z,75.36
2022-09-06T16:38:24.714Z,75.48
2022-09-06T16:43:32.750Z,77.25
2022-09-06T16:48:40.153Z,78.3
2022-09-06T16:53:46.838Z,78.02
2022-09-06T16:58:54.898Z,79.22
2022-09-06T17:04:02.062Z,80.23001
2022-09-06T17:09:11.188Z,80.81
2022-09-06T17:14:18.455Z,81.8
2022-09-06T17:19:26.196Z,82.36
2022-09-06T17:24:33.538Z,81.83001
2022-09-06T17:29:41.302Z,81.91001
2022-09-06T17:34:47.536Z,82.13
2022-09-06T17:39:54.473Z,82.81
2022-09-06T17:45:02.114Z,83.44001
2022-09-06T17:50:10.037Z,84.01
2022-09-06T17:55:17.551Z,84.74
2022-09-06T18:00:25.444Z,85.04001
2022-09-06T18:05:33.641Z,85.36
2022-09-06T18:10:41.588Z,85.84
2022-09-06T18:15:48.197Z,86.19
2022-09-06T18:20:55.988Z,86.23
2022-09-06T18:26:12.800Z,86.83001
2022-09-06T18:31:19.574Z,86.81
2022-09-06T18:36:28.317Z,87.40001
2022-09-06T18:41:35.024Z,87.52
2022-09-06T18:46:58.519Z,87.45
2022-09-06T18:52:07.004Z,87.82001
2022-09-06T18:57:14.518Z,87.83999
2022-09-06T19:02:21.688Z,88.21
2022-09-06T19:07:30.479Z,88.51001
2022-09-06T19:12:38.195Z,88.61
2022-09-06T19:17:46.207Z,88.8
2022-09-06T19:22:54.509Z,88.91001
2022-09-06T19:28:01.551Z,89.16
2022-09-06T19:33:08.242Z,89.31
2022-09-06T19:38:20.268Z,89.26001
2022-09-06T19:43:29.565Z,89.13
2022-09-06T19:48:35.502Z,89.57
2022-09-06T19:53:42.690Z,89.63
2022-09-06T19:58:50.153Z,89.64
2022-09-06T20:03:58.364Z,89.97001
2022-09-06T20:09:06.925Z,90.06
2022-09-06T20:14:14.019Z,90.2
2022-09-06T20:19:22.046Z,90.44001
2022-09-06T20:24:29.100Z,90.76
2022-09-06T20:29:37.653Z,90.69
2022-09-06T20:34:44.147Z,90.82
2022-09-06T20:39:52.138Z,90.82
2022-09-06T20:44:58.485Z,90.49
2022-09-06T20:50:05.749Z,90.78
2022-09-06T20:55:13.521Z,91.02
2022-09-06T21:00:20.783Z,91.0
2022-09-06T21:05:28.701Z,90.98001
2022-09-06T21:10:36.986Z,91.14
2022-09-06T21:15:45.818Z,91.28
2022-09-06T21:20:52.103Z,91.2
2022-09-06T21:25:59.337Z,91.42
2022-09-06T21:31:06.947Z,91.7
2022-09-06T21:36:15.422Z,91.64001
2022-09-06T21:41:24.003Z,91.50001
2022-09-06T21:46:31.299Z,91.82
2022-09-06T21:51:39.338Z,91.95
2022-09-06T21:56:45.816Z,91.92
2022-09-06T22:01:53.538Z,92.08
2022-09-06T22:07:01.044Z,92.28
2022-09-06T22:12:09.872Z,92.38
2022-09-06T22:17:18.334Z,92.22
2022-09-06T22:22:25.107Z,92.65
2022-09-06T22:27:32.084Z,92.40001
2022-09-06T22:32:40.106Z,92.42
2022-09-06T22:37:49.520Z,92.18
2022-09-06T22:42:58.752Z,92.48
2022-09-06T22:48:07.335Z,92.32
2022-09-06T22:53:16.125Z,92.61001
2022-09-06T22:58:25.210Z,92.62
2022-09-06T23:03:32.739Z,92.73001
2022-09-06T23:08:40.294Z,92.61001
2022-09-06T23:13:48.030Z,92.80001
2022-09-06T23:18:55.504Z,92.68001
2022-09-06T23:24:03.204Z,92.86
2022-09-06T23:29:09.426Z,93.03
2022-09-06T23:34:18.535Z,93.02
2022-09-06T23:39:24.468Z,93.16001
2022-09-06T23:44:32.900Z,93.13
2022-09-06T23:49:41.224Z,93.13
2022-09-06T23:54:47.938Z,93.12
2022-09-06T23:59:55.395Z,93.08001
